createdAt,value
2023-03-21T00:00:11.450Z,4.17
2023-03-21T00:02:39.461Z,3.80
2023-03-21T00:05:15.476Z,4.53
2023-03-21T00:07:44.066Z,3.77
2023-03-21T00:10:18.166Z,6.17
2023-03-21T00:12:55.427Z,5.37
2023-03-21T00:15:30.589Z,4.27
2023-03-21T00:18:11.472Z,5.40
2023-03-21T00:20:40.630Z,4.97
2023-03-21T00:23:08.517Z,3.73
2023-03-21T00:25:36.457Z,3.33
2023-03-21T00:28:08.392Z,3.50
2023-03-21T00:30:36.610Z,3.20
2023-03-21T00:33:19.685Z,4.10
2023-03-21T00:36:02.595Z,3.43
2023-03-21T00:38:32.922Z,2.80
2023-03-21T00:41:04.842Z,3.33
2023-03-21T00:43:35.934Z,2.70
2023-03-21T00:46:04.102Z,1.97
2023-03-21T00:48:31.980Z,3.83
2023-03-21T00:51:01.180Z,2.90
2023-03-21T00:53:30.010Z,3.17
2023-03-21T00:55:58.734Z,4.50
2023-03-21T00:58:26.465Z,3.50
2023-03-21T01:00:54.684Z,2.80
2023-03-21T01:03:25.282Z,3.23
2023-03-21T01:06:05.897Z,4.47
2023-03-21T01:08:50.723Z,4.67
2023-03-21T01:11:21.916Z,3.73
2023-03-21T01:14:07.294Z,3.40
2023-03-21T01:16:37.688Z,3.43
2023-03-21T01:19:15.001Z,2.47
2023-03-21T01:21:50.017Z,3.90
2023-03-21T01:24:19.086Z,4.10
2023-03-21T01:26:46.979Z,4.73
2023-03-21T01:29:14.709Z,4.50
2023-03-21T01:31:42.389Z,2.80
2023-03-21T01:34:10.098Z,3.20
2023-03-21T01:36:37.941Z,3.30
2023-03-21T01:39:06.942Z,2.30
2023-03-21T01:41:45.148Z,2.80
2023-03-21T01:44:17.710Z,2.77
2023-03-21T01:47:00.137Z,5.83
2023-03-21T01:49:35.733Z,3.60
2023-03-21T01:52:12.223Z,3.67
2023-03-21T01:54:46.113Z,5.10
2023-03-21T01:57:20.987Z,5.27
2023-03-21T01:59:51.185Z,3.23
2023-03-21T02:02:23.202Z,3.73
2023-03-21T02:04:56.121Z,4.23
2023-03-21T02:07:29.282Z,4.07
2023-03-21T02:09:58.038Z,4.13
2023-03-21T02:12:28.234Z,3.73
2023-03-21T02:14:57.100Z,2.63
2023-03-21T02:17:33.902Z,1.80
2023-03-21T02:20:38.010Z,3.77
2023-03-21T02:23:32.101Z,2.17
2023-03-21T02:26:33.364Z,2.90
2023-03-21T02:29:32.787Z,3.00
2023-03-21T02:32:20.391Z,1.80
2023-03-21T02:35:09.166Z,3.63
2023-03-21T02:37:46.790Z,3.10
2023-03-21T02:40:27.096Z,4.03
2023-03-21T02:43:01.495Z,4.27
2023-03-21T02:45:37.209Z,5.70
2023-03-21T02:48:12.161Z,3.00
2023-03-21T02:50:48.623Z,3.70
2023-03-21T02:53:21.513Z,3.07
2023-03-21T02:55:50.437Z,5.00
2023-03-21T02:58:21.301Z,3.97
2023-03-21T03:00:49.766Z,2.47
2023-03-21T03:03:28.025Z,4.83
2023-03-21T03:06:03.544Z,5.23
2023-03-21T03:08:53.070Z,4.63
2023-03-21T03:11:31.016Z,3.00
2023-03-21T03:14:36.770Z,2.67
2023-03-21T03:17:10.557Z,5.20
2023-03-21T03:19:50.609Z,2.73
2023-03-21T03:22:26.474Z,3.43
2023-03-21T03:25:12.619Z,2.13
2023-03-21T03:27:47.914Z,2.80
2023-03-21T03:30:17.503Z,2.73
2023-03-21T03:32:50.189Z,4.47
2023-03-21T03:35:21.162Z,4.27
2023-03-21T03:37:54.333Z,2.70
2023-03-21T03:40:26.866Z,4.10
2023-03-21T03:42:57.948Z,2.23
2023-03-21T03:45:30.976Z,3.63
2023-03-21T03:48:07.804Z,4.20
2023-03-21T03:50:41.176Z,2.60
2023-03-21T03:53:18.951Z,4.60
2023-03-21T03:55:50.282Z,4.60
2023-03-21T03:58:23.784Z,5.67
2023-03-21T04:00:55.422Z,4.73
2023-03-21T04:03:23.646Z,3.30
2023-03-21T04:05:51.355Z,4.37
2023-03-21T04:08:19.148Z,3.60
2023-03-21T04:10:48.129Z,4.30
2023-03-21T04:13:15.941Z,4.23
2023-03-21T04:15:44.852Z,4.17
2023-03-21T04:18:12.871Z,4.33
2023-03-21T04:20:44.970Z,3.83
2023-03-21T04:23:12.920Z,4.93
2023-03-21T04:25:53.910Z,5.83
2023-03-21T04:28:25.159Z,4.80
2023-03-21T04:31:02.248Z,7.70
2023-03-21T04:33:31.220Z,3.60
2023-03-21T04:35:59.191Z,5.30
2023-03-21T04:38:30.763Z,3.87
2023-03-21T04:40:59.030Z,3.37
2023-03-21T04:43:28.428Z,4.93
2023-03-21T04:45:56.697Z,5.70
2023-03-21T04:48:25.001Z,3.37
2023-03-21T04:50:53.161Z,6.13
2023-03-21T04:53:20.885Z,4.17
2023-03-21T04:55:51.034Z,5.33
2023-03-21T04:58:21.238Z,5.07
2023-03-21T05:00:52.842Z,4.33
2023-03-21T05:03:21.446Z,5.40
2023-03-21T05:05:49.194Z,5.97
2023-03-21T05:08:17.514Z,6.10
2023-03-21T05:10:45.726Z,6.00
2023-03-21T05:13:13.659Z,6.57
2023-03-21T05:15:41.414Z,8.70
2023-03-21T05:18:12.110Z,8.27
2023-03-21T05:20:42.732Z,7.67
2023-03-21T05:23:11.737Z,6.97
2023-03-21T05:25:40.197Z,8.90
2023-03-21T05:28:08.923Z,5.23
2023-03-21T05:30:36.796Z,10.50
2023-03-21T05:33:05.280Z,7.10
2023-03-21T05:35:34.401Z,8.03
2023-03-21T05:38:02.173Z,7.40
2023-03-21T05:40:30.019Z,10.80
2023-03-21T05:42:58.022Z,6.13
2023-03-21T05:45:25.887Z,7.63
2023-03-21T05:47:53.864Z,10.23
2023-03-21T05:50:21.939Z,8.53
2023-03-21T05:52:51.179Z,7.93
2023-03-21T05:55:19.130Z,5.30
2023-03-21T05:57:47.137Z,9.20
2023-03-21T06:00:16.846Z,5.63
2023-03-21T06:02:45.183Z,6.07
2023-03-21T06:05:13.242Z,7.00
2023-03-21T06:07:41.260Z,5.77
2023-03-21T06:10:11.936Z,6.93
2023-03-21T06:12:39.665Z,7.47
2023-03-21T06:15:08.914Z,8.67
2023-03-21T06:17:36.839Z,6.07
2023-03-21T06:20:06.867Z,9.87
2023-03-21T06:22:35.677Z,8.03
2023-03-21T06:25:03.601Z,6.97
2023-03-21T06:27:32.616Z,6.93
2023-03-21T06:30:00.554Z,5.83
2023-03-21T06:32:28.506Z,8.13
2023-03-21T06:34:56.227Z,7.20
2023-03-21T06:37:24.190Z,7.90
2023-03-21T06:39:52.423Z,7.63
2023-03-21T06:42:21.173Z,6.90
2023-03-21T06:44:50.252Z,8.63
2023-03-21T06:47:18.051Z,5.50
2023-03-21T06:49:45.853Z,7.50
2023-03-21T06:52:13.665Z,5.90
2023-03-21T06:54:41.492Z,6.90
2023-03-21T06:57:09.268Z,7.83
2023-03-21T06:59:37.256Z,7.07
2023-03-21T07:02:06.631Z,5.97
2023-03-21T07:04:34.608Z,5.47
2023-03-21T07:07:02.360Z,7.97
2023-03-21T07:09:30.084Z,8.57
2023-03-21T07:11:58.264Z,4.80
2023-03-21T07:14:26.359Z,5.70
2023-03-21T07:16:54.104Z,5.83
2023-03-21T07:19:23.167Z,8.50
2023-03-21T07:21:50.911Z,7.20
2023-03-21T07:24:18.661Z,8.53
2023-03-21T07:26:46.435Z,6.70
2023-03-21T07:29:15.344Z,5.83
2023-03-21T07:31:43.108Z,6.60
2023-03-21T07:34:10.957Z,6.20
2023-03-21T07:36:40.017Z,6.93
2023-03-21T07:39:07.726Z,5.50
2023-03-21T07:41:35.413Z,6.43
2023-03-21T07:44:03.703Z,5.68
2023-03-21T07:46:31.444Z,4.97
2023-03-21T07:48:59.416Z,3.92
2023-03-21T07:51:28.260Z,4.38
2023-03-21T07:53:57.341Z,4.15
2023-03-21T07:56:25.247Z,5.28
2023-03-21T07:58:53.007Z,4.57
2023-03-21T08:01:21.835Z,3.40
2023-03-21T08:03:51.440Z,4.82
2023-03-21T08:06:19.313Z,4.07
2023-03-21T08:08:47.295Z,3.47
2023-03-21T08:11:16.345Z,3.55
2023-03-21T08:13:44.067Z,3.17
2023-03-21T08:16:11.793Z,2.75
2023-03-21T08:18:39.496Z,2.35
2023-03-21T08:21:09.658Z,5.78
2023-03-21T08:23:37.467Z,4.93
2023-03-21T08:26:05.523Z,4.28
2023-03-21T08:28:34.712Z,3.30
2023-03-21T08:31:02.493Z,4.85
2023-03-21T08:33:30.422Z,2.53
2023-03-21T08:36:00.402Z,2.75
2023-03-21T08:38:29.822Z,4.97
2023-03-21T08:41:00.394Z,5.10
2023-03-21T08:43:28.219Z,3.55
2023-03-21T08:45:57.798Z,4.68
2023-03-21T08:48:25.673Z,2.40
2023-03-21T08:50:53.459Z,4.10
2023-03-21T08:53:21.189Z,3.72
2023-03-21T08:55:50.664Z,4.75
2023-03-21T08:58:18.904Z,3.50
2023-03-21T09:00:46.833Z,4.65
2023-03-21T09:03:16.146Z,3.67
2023-03-21T09:05:45.521Z,2.22
2023-03-21T09:08:14.026Z,2.33
2023-03-21T09:10:41.722Z,2.60
2023-03-21T09:13:09.487Z,3.40
2023-03-21T09:15:37.644Z,4.03
2023-03-21T09:18:14.988Z,5.10
2023-03-21T09:20:45.793Z,4.53
2023-03-21T09:23:14.910Z,3.72
2023-03-21T09:25:43.401Z,2.55
2023-03-21T09:28:12.133Z,3.40
2023-03-21T09:30:39.924Z,3.28
2023-03-21T09:33:09.632Z,1.85
2023-03-21T09:35:37.855Z,3.92
2023-03-21T09:38:07.332Z,2.05
2023-03-21T09:40:55.599Z,4.45
2023-03-21T09:43:38.181Z,3.35
2023-03-21T09:46:12.001Z,3.50
2023-03-21T09:48:56.736Z,2.33
2023-03-21T09:51:31.102Z,3.22
2023-03-21T09:54:04.969Z,2.45
2023-03-21T09:56:33.073Z,2.58
2023-03-21T09:59:02.509Z,3.35
2023-03-21T10:01:35.231Z,3.90
2023-03-21T10:04:06.610Z,2.30
2023-03-21T10:06:40.158Z,3.00
2023-03-21T10:09:16.227Z,2.65
2023-03-21T10:11:47.840Z,4.30
2023-03-21T10:14:20.378Z,3.95
2023-03-21T10:16:50.442Z,2.65
2023-03-21T10:19:20.935Z,1.80
2023-03-21T10:22:00.618Z,2.65
2023-03-21T10:24:34.186Z,1.85
2023-03-21T10:27:03.798Z,2.60
2023-03-21T10:29:37.106Z,1.67
2023-03-21T10:32:05.454Z,2.42
2023-03-21T10:34:37.933Z,2.00
2023-03-21T10:37:06.350Z,2.47
2023-03-21T10:39:38.630Z,4.50
2023-03-21T10:42:06.949Z,4.03
2023-03-21T10:44:36.831Z,2.22
2023-03-21T10:47:07.677Z,3.53
2023-03-21T10:49:56.449Z,2.60
2023-03-21T10:52:29.408Z,2.17
2023-03-21T10:55:16.590Z,2.10
2023-03-21T10:57:44.435Z,2.97
2023-03-21T11:00:21.383Z,2.95
2023-03-21T11:02:51.130Z,1.60
2023-03-21T11:05:23.150Z,3.45
2023-03-21T11:08:00.122Z,3.45
2023-03-21T11:10:31.943Z,4.28
2023-03-21T11:13:05.342Z,4.43
2023-03-21T11:15:39.488Z,2.67
2023-03-21T11:18:16.590Z,3.03
2023-03-21T11:20:50.268Z,1.73
2023-03-21T11:23:20.603Z,2.13
2023-03-21T11:25:51.856Z,4.93
2023-03-21T11:28:22.363Z,3.25
2023-03-21T11:30:53.819Z,2.72
2023-03-21T11:33:27.094Z,4.55
2023-03-21T11:36:03.031Z,2.75
2023-03-21T11:38:33.240Z,3.45
2023-03-21T11:41:03.665Z,2.65
2023-03-21T11:43:33.913Z,2.70
2023-03-21T11:46:06.967Z,2.63
2023-03-21T11:48:39.493Z,3.22
2023-03-21T11:51:18.002Z,2.67
2023-03-21T11:53:50.068Z,2.90
2023-03-21T11:56:26.493Z,3.75
2023-03-21T11:59:16.168Z,3.10
2023-03-21T12:01:57.193Z,2.50
2023-03-21T12:04:39.609Z,4.03
2023-03-21T12:07:20.440Z,3.28
2023-03-21T12:09:56.179Z,2.40
2023-03-21T12:12:39.218Z,4.18
2023-03-21T12:15:14.608Z,2.55
2023-03-21T12:17:53.603Z,3.08
2023-03-21T12:20:38.279Z,2.42
2023-03-21T12:23:22.408Z,2.45
2023-03-21T12:25:56.559Z,2.38
2023-03-21T12:28:39.551Z,2.25
2023-03-21T12:31:12.024Z,2.38
2023-03-21T12:33:54.583Z,2.13
2023-03-21T12:36:38.629Z,2.47
2023-03-21T12:39:22.351Z,1.88
2023-03-21T12:42:01.034Z,2.65
2023-03-21T12:44:34.920Z,3.55
2023-03-21T12:47:08.790Z,1.70
2023-03-21T12:49:41.631Z,3.05
2023-03-21T12:52:13.914Z,2.47
2023-03-21T12:54:47.715Z,2.97
2023-03-21T12:57:18.882Z,2.72
2023-03-21T12:59:55.510Z,2.88
2023-03-21T13:02:29.628Z,4.05
2023-03-21T13:05:04.595Z,2.15
2023-03-21T13:07:38.163Z,2.70
2023-03-21T13:10:15.059Z,2.38
2023-03-21T13:12:49.454Z,2.03
2023-03-21T13:15:41.102Z,2.85
2023-03-21T13:18:19.775Z,2.63
2023-03-21T13:20:50.705Z,2.47
2023-03-21T13:23:19.573Z,2.20
2023-03-21T13:25:49.028Z,2.25
2023-03-21T13:28:22.946Z,1.85
2023-03-21T13:30:52.617Z,2.17
2023-03-21T13:33:25.883Z,3.38
2023-03-21T13:36:05.374Z,2.58
2023-03-21T13:38:35.003Z,2.28
2023-03-21T13:41:08.286Z,3.22
2023-03-21T13:43:42.024Z,2.15
2023-03-21T13:46:13.086Z,2.47
2023-03-21T13:48:59.913Z,4.60
2023-03-21T13:51:52.761Z,1.92
2023-03-21T13:54:25.420Z,1.90
2023-03-21T13:56:55.566Z,1.48
2023-03-21T13:59:39.215Z,1.77
2023-03-21T14:02:24.492Z,3.08
2023-03-21T14:05:07.011Z,2.17
2023-03-21T14:07:41.017Z,1.48
2023-03-21T14:10:19.594Z,2.80
2023-03-21T14:12:48.457Z,0.73
2023-03-21T14:15:20.750Z,1.90
2023-03-21T14:17:55.445Z,1.23
2023-03-21T14:20:26.367Z,0.80
2023-03-21T14:22:54.456Z,0.80
2023-03-21T14:25:27.255Z,1.35
2023-03-21T14:27:59.552Z,0.85
2023-03-21T14:30:29.400Z,1.45
2023-03-21T14:33:01.512Z,2.25
2023-03-21T14:35:32.235Z,0.80
2023-03-21T14:38:02.417Z,1.23
2023-03-21T14:40:30.708Z,0.88
2023-03-21T14:42:59.560Z,1.27
2023-03-21T14:45:29.118Z,1.95
2023-03-21T14:48:00.760Z,1.50
2023-03-21T14:50:39.754Z,1.85
2023-03-21T14:53:08.625Z,2.00
2023-03-21T14:55:43.213Z,1.65
2023-03-21T14:58:14.400Z,1.48
2023-03-21T15:00:42.235Z,2.30
2023-03-21T15:03:14.378Z,1.50
2023-03-21T15:05:43.340Z,1.43
2023-03-21T15:08:16.777Z,1.87
2023-03-21T15:11:06.187Z,1.77
2023-03-21T15:13:36.696Z,1.17
2023-03-21T15:16:06.231Z,1.13
2023-03-21T15:18:38.338Z,2.33
2023-03-21T15:21:09.578Z,1.53
2023-03-21T15:23:40.625Z,1.30
2023-03-21T15:26:08.773Z,2.23
2023-03-21T15:28:37.236Z,1.27
2023-03-21T15:31:06.372Z,1.33
2023-03-21T15:33:35.338Z,1.83
2023-03-21T15:36:10.115Z,1.00
2023-03-21T15:38:40.617Z,0.73
2023-03-21T15:41:16.475Z,1.73
2023-03-21T15:43:44.834Z,1.07
2023-03-21T15:46:16.920Z,1.07
2023-03-21T15:48:46.753Z,1.40
2023-03-21T15:51:24.180Z,1.13
2023-03-21T15:53:54.341Z,0.90
2023-03-21T15:56:23.406Z,1.77
2023-03-21T15:58:53.682Z,1.80
2023-03-21T16:01:26.386Z,0.83
2023-03-21T16:03:59.382Z,1.50
2023-03-21T16:06:33.522Z,1.53
2023-03-21T16:09:12.332Z,1.13
2023-03-21T16:11:44.787Z,1.37
2023-03-21T16:14:12.451Z,0.93
2023-03-21T16:16:40.366Z,0.67
2023-03-21T16:19:09.479Z,1.03
2023-03-21T16:21:38.585Z,0.80
2023-03-21T16:24:08.330Z,1.80
2023-03-21T16:26:38.944Z,1.47
2023-03-21T16:29:08.505Z,1.33
2023-03-21T16:31:37.756Z,1.13
2023-03-21T16:34:05.845Z,0.87
2023-03-21T16:36:37.558Z,1.43
2023-03-21T16:39:17.176Z,1.10
2023-03-21T16:41:45.109Z,0.93
2023-03-21T16:44:12.881Z,1.10
2023-03-21T16:46:40.712Z,1.47
2023-03-21T16:49:21.009Z,1.40
2023-03-21T16:51:50.225Z,0.80
2023-03-21T16:54:18.251Z,3.27
2023-03-21T16:56:48.951Z,1.80
2023-03-21T16:59:16.701Z,1.27
2023-03-21T17:01:47.967Z,3.03
2023-03-21T17:04:16.937Z,2.10
2023-03-21T17:06:47.336Z,3.23
2023-03-21T17:09:18.748Z,1.83
2023-03-21T17:11:46.520Z,1.20
2023-03-21T17:14:16.773Z,3.50
2023-03-21T17:16:44.757Z,1.43
2023-03-21T17:19:14.774Z,1.80
2023-03-21T17:21:42.424Z,2.60
2023-03-21T17:24:10.364Z,1.73
2023-03-21T17:26:39.673Z,2.07
2023-03-21T17:29:07.854Z,1.87
2023-03-21T17:31:37.678Z,3.87
2023-03-21T17:34:06.014Z,2.33
2023-03-21T17:36:36.108Z,3.83
2023-03-21T17:39:05.903Z,2.77
2023-03-21T17:41:34.157Z,2.53
2023-03-21T17:44:03.844Z,4.33
2023-03-21T17:46:36.634Z,3.60
2023-03-21T17:49:05.169Z,3.97
2023-03-21T17:51:33.240Z,5.87
2023-03-21T17:54:01.580Z,3.53
2023-03-21T17:56:32.035Z,5.33
2023-03-21T17:59:01.483Z,4.43
2023-03-21T18:01:31.644Z,4.90
2023-03-21T18:04:02.160Z,4.30
2023-03-21T18:06:29.933Z,5.60
2023-03-21T18:08:59.712Z,4.23
2023-03-21T18:11:28.706Z,4.97
2023-03-21T18:14:09.894Z,4.07
2023-03-21T18:16:43.459Z,4.40
2023-03-21T18:19:12.646Z,5.50
2023-03-21T18:21:44.921Z,5.10
2023-03-21T18:24:13.274Z,4.83
2023-03-21T18:26:41.561Z,5.20
2023-03-21T18:30:13.149Z,4.53
2023-03-21T18:32:07.078Z,5.33
2023-03-21T18:34:35.922Z,4.60
2023-03-21T18:37:04.392Z,4.20
2023-03-21T18:39:32.578Z,4.90
2023-03-21T18:42:02.636Z,4.43
2023-03-21T18:44:39.228Z,4.80
2023-03-21T18:47:08.895Z,5.57
2023-03-21T18:52:26.303Z,4.53
2023-03-21T18:54:54.377Z,4.93
2023-03-21T18:57:38.881Z,5.17
2023-03-21T19:00:13.338Z,5.93
2023-03-21T19:02:47.091Z,4.50
2023-03-21T19:05:16.603Z,4.80
2023-03-21T19:07:44.494Z,4.80
2023-03-21T19:10:18.097Z,5.93
2023-03-21T19:12:46.124Z,4.03
2023-03-21T19:15:13.843Z,4.47
2023-03-21T19:20:30.713Z,5.07
2023-03-21T19:22:58.459Z,4.60
2023-03-21T19:25:26.559Z,4.27
2023-03-21T19:27:54.308Z,4.60
2023-03-21T19:30:22.138Z,4.63
2023-03-21T19:32:51.669Z,6.80
2023-03-21T19:35:19.578Z,4.43
2023-03-21T19:37:47.560Z,5.77
2023-03-21T19:40:15.604Z,7.87
2023-03-21T19:42:43.540Z,4.03
2023-03-21T19:45:12.096Z,6.00
2023-03-21T19:47:39.792Z,4.97
2023-03-21T19:52:58.159Z,4.93
2023-03-21T19:55:26.398Z,5.00
2023-03-21T19:57:54.332Z,5.03
2023-03-21T20:00:22.406Z,5.10
2023-03-21T20:02:51.152Z,6.27
2023-03-21T20:05:22.056Z,8.73
2023-03-21T20:07:50.085Z,6.13
2023-03-21T20:10:17.926Z,5.63
2023-03-21T20:12:46.105Z,7.57
2023-03-21T20:15:18.350Z,6.97
2023-03-21T20:17:47.714Z,5.20
2023-03-21T20:20:17.975Z,6.60
2023-03-21T20:25:40.440Z,5.67
2023-03-21T20:28:22.622Z,7.63
2023-03-21T20:30:56.700Z,7.17
2023-03-21T20:33:24.668Z,7.53
2023-03-21T20:38:46.315Z,7.77
2023-03-21T20:41:14.142Z,7.10
2023-03-21T20:46:29.765Z,9.43
2023-03-21T20:48:59.665Z,12.77
2023-03-21T20:54:17.840Z,8.70
2023-03-21T20:56:45.786Z,11.00
2023-03-21T20:59:20.819Z,8.77
2023-03-21T21:01:51.957Z,8.97
2023-03-21T21:04:20.481Z,8.47
2023-03-21T21:06:48.474Z,8.47
2023-03-21T21:09:17.987Z,8.23
2023-03-21T21:14:35.487Z,10.17
2023-03-21T21:17:22.500Z,9.30
2023-03-21T21:19:51.489Z,9.93
2023-03-21T21:22:19.484Z,12.73
2023-03-21T21:24:48.536Z,8.73
2023-03-21T21:27:16.246Z,9.57
2023-03-21T21:29:47.734Z,11.80
2023-03-21T21:32:18.414Z,9.97
2023-03-21T21:34:46.358Z,9.20
2023-03-21T21:37:14.303Z,10.07
2023-03-21T21:39:42.116Z,9.03
2023-03-21T21:42:11.158Z,10.37
2023-03-21T21:44:44.036Z,9.30
2023-03-21T21:47:12.146Z,12.67
2023-03-21T21:49:40.124Z,10.67
2023-03-21T21:52:08.076Z,9.80
2023-03-21T21:54:36.141Z,9.97
2023-03-21T21:57:04.200Z,10.20
2023-03-21T21:59:34.027Z,12.50
2023-03-21T22:02:03.902Z,10.27
2023-03-21T22:04:34.635Z,9.17
2023-03-21T22:07:03.018Z,10.37
2023-03-21T22:09:32.108Z,11.07
2023-03-21T22:11:59.894Z,11.50
2023-03-21T22:14:27.650Z,9.00
2023-03-21T22:16:56.721Z,11.53
2023-03-21T22:19:24.492Z,9.87
2023-03-21T22:21:53.611Z,13.93
2023-03-21T22:24:21.428Z,12.60
2023-03-21T22:26:49.188Z,9.97
2023-03-21T22:29:17.792Z,9.80
2023-03-21T22:31:45.877Z,10.83
2023-03-21T22:34:15.014Z,10.33
2023-03-21T22:36:46.956Z,10.37
2023-03-21T22:39:14.934Z,11.20
2023-03-21T22:41:42.846Z,10.57
2023-03-21T22:44:10.784Z,11.10
2023-03-21T22:46:38.757Z,11.37
2023-03-21T22:49:06.768Z,9.83
2023-03-21T22:51:35.932Z,11.80
2023-03-21T22:54:03.703Z,10.80
2023-03-21T22:56:31.598Z,8.53
2023-03-21T22:59:00.245Z,10.87
2023-03-21T23:01:28.149Z,10.00
2023-03-21T23:03:56.690Z,9.90
2023-03-21T23:06:24.515Z,10.37
2023-03-21T23:08:53.640Z,10.60
2023-03-21T23:11:21.374Z,10.50
2023-03-21T23:13:58.702Z,11.10
2023-03-21T23:16:34.804Z,13.27
2023-03-21T23:19:03.243Z,12.67
2023-03-21T23:21:32.135Z,12.37
2023-03-21T23:24:01.197Z,12.83
2023-03-21T23:26:29.203Z,11.43
2023-03-21T23:28:56.998Z,10.30
2023-03-21T23:31:27.088Z,10.97
2023-03-21T23:33:55.787Z,11.80
2023-03-21T23:36:23.712Z,10.43
2023-03-21T23:38:51.425Z,11.23
2023-03-21T23:41:23.007Z,12.93
2023-03-21T23:43:51.104Z,10.70
2023-03-21T23:46:19.737Z,12.80
2023-03-21T23:48:47.868Z,13.97
2023-03-21T23:51:17.939Z,11.93
2023-03-21T23:53:46.234Z,10.57
2023-03-21T23:56:15.821Z,17.30
2023-03-21T23:58:45.579Z,10.70
